Time;durP1;ratioP1;P1;durP2;ratioP2;P2;SDS_P1;SDS_P2;PMS_P1;PMS_P2;Temp;Humidity;BMP_temperature;BMP_pressure;BME280_temperature;BME280_humidity;BME280_pressure;Samples;Min_cycle;Max_cycle;Signal;HPM_P1;HPM_P2
2023/06/07 00:02:04;;;;;;;11.00;7.22;;;;;;;;;;4785006;29;20034;-88
2023/06/07 00:04:30;;;;;;;14.27;7.70;;;;;;;;;;4783905;29;20054;-87
2023/06/07 00:07:01;;;;;;;16.23;6.95;;;;;;;;;;4784022;29;20060;-87
2023/06/07 00:09:30;;;;;;;12.93;6.75;;;;;;;;;;4781201;29;20600;-87
2023/06/07 00:11:56;;;;;;;19.17;7.95;;;;;;;;;;4786494;29;20130;-88
2023/06/07 00:14:23;;;;;;;13.77;7.78;;;;;;;;;;4780722;29;20051;-88
2023/06/07 00:16:52;;;;;;;17.50;8.40;;;;;;;;;;4781917;29;20043;-88
2023/06/07 00:19:24;;;;;;;16.42;7.57;;;;;;;;;;4784600;29;20104;-87
2023/06/07 00:21:54;;;;;;;12.60;7.60;;;;;;;;;;4780202;29;20043;-88
2023/06/07 00:24:21;;;;;;;12.68;7.57;;;;;;;;;;4781490;29;20098;-88
2023/06/07 00:26:47;;;;;;;14.60;7.72;;;;;;;;;;4783359;29;20055;-88
2023/06/07 00:29:14;;;;;;;17.92;8.63;;;;;;;;;;4786334;29;20058;-88
2023/06/07 00:31:43;;;;;;;15.43;7.03;;;;;;;;;;4784125;29;20071;-87
2023/06/07 00:34:09;;;;;;;14.45;7.18;;;;;;;;;;4778508;29;20062;-88
2023/06/07 00:36:35;;;;;;;19.02;7.63;;;;;;;;;;4784457;29;20129;-88
2023/06/07 00:39:05;;;;;;;14.18;7.65;;;;;;;;;;4770147;29;20053;-88
2023/06/07 00:41:31;;;;;;;19.80;7.93;;;;;;;;;;4790229;29;20095;-87
2023/06/07 00:43:57;;;;;;;15.50;7.00;;;;;;;;;;4786377;29;20567;-88
2023/06/07 00:46:26;;;;;;;18.67;7.80;;;;;;;;;;4784023;29;20074;-87
2023/06/07 00:48:52;;;;;;;17.02;7.43;;;;;;;;;;4784957;29;20516;-88
2023/06/07 00:51:18;;;;;;;15.02;6.97;;;;;;;;;;4775727;29;20058;-87
2023/06/07 00:53:47;;;;;;;11.90;7.25;;;7.80;99.90;;;;;;4792918;29;20049;-87
2023/06/07 00:56:15;;;;;;;13.50;7.25;;;;;;;;;;4770430;29;20054;-88
2023/06/07 00:58:42;;;;;;;14.65;7.15;;;;;;;;;;4785549;29;20573;-88
2023/06/07 01:01:08;;;;;;;20.27;8.38;;;;;;;;;;4791711;29;20091;-88
2023/06/07 01:03:35;;;;;;;17.63;7.20;;;;;;;;;;4787849;29;20565;-87
2023/06/07 01:06:05;;;;;;;14.95;8.02;;;;;;;;;;4798778;29;20086;-88
2023/06/07 01:08:32;;;;;;;15.23;7.65;;;7.60;99.90;;;;;;4784690;29;20100;-89
2023/06/07 01:11:00;;;;;;;14.77;7.90;;;;;;;;;;4785642;29;20085;-88
2023/06/07 01:13:26;;;;;;;16.55;8.13;;;;;;;;;;4785800;29;20046;-88
2023/06/07 01:15:52;;;;;;;13.20;7.10;;;;;;;;;;4776002;29;20075;-88
2023/06/07 01:18:19;;;;;;;17.17;7.70;;;;;;;;;;4786596;29;20038;-88
2023/06/07 01:20:56;;;;;;;15.90;8.00;;;7.70;99.90;;;;;;4790018;29;20049;-88
2023/06/07 01:23:45;;;;;;;11.65;7.03;;;7.70;99.90;;;;;;4784693;29;20074;-88
2023/06/07 01:26:12;;;;;;;8.90;5.35;;;;;;;;;;4797476;29;20751;-87
2023/06/07 01:28:41;;;;;;;7.90;4.60;;;;;;;;;;4804938;29;20046;-88
2023/06/07 01:31:08;;;;;;;10.70;6.95;;;;;;;;;;4803610;29;20539;-88
2023/06/07 01:33:34;;;;;;;10.18;5.80;;;;;;;;;;4803904;29;20077;-88
2023/06/07 01:36:01;;;;;;;10.75;5.43;;;;;;;;;;4804313;29;20054;-88
2023/06/07 01:38:27;;;;;;;7.43;4.35;;;8.10;99.90;;;;;;4796206;29;20045;-88
2023/06/07 01:40:54;;;;;;;7.53;4.28;;;;;;;;;;4799159;29;20062;-87
2023/06/07 01:43:21;;;;;;;8.65;5.35;;;8.10;99.90;;;;;;4802487;29;20042;-87
2023/06/07 01:45:48;;;;;;;14.20;8.95;;;;;;;;;;4791443;29;20420;-88
2023/06/07 01:48:16;;;;;;;17.63;9.45;;;;;;;;;;4801415;29;20056;-88
2023/06/07 01:50:42;;;;;;;13.27;7.65;;;;;;;;;;4807119;29;20103;-88
2023/06/07 01:53:08;;;;;;;15.95;8.82;;;;;;;;;;4801940;29;20076;-87
2023/06/07 01:55:35;;;;;;;13.15;9.07;;;;;;;;;;4803526;29;20049;-87
2023/06/07 01:58:08;;;;;;;14.77;8.80;;;;;;;;;;4801809;29;20034;-88
2023/06/07 02:00:34;;;;;;;;;;;;;;;;;;4804930;29;20056;-88
2023/06/07 02:03:04;;;;;;;13.43;8.00;;;;;;;;;;4798080;29;19999;-88
2023/06/07 02:05:39;;;;;;;13.48;8.80;;;;;;;;;;4801445;29;20453;-88
2023/06/07 02:08:14;;;;;;;13.10;8.50;;;;;;;;;;4801825;29;20129;-88
2023/06/07 02:10:42;;;;;;;17.67;9.15;;;8.50;99.90;;;;;;4803060;29;20882;-88
2023/06/07 02:13:08;;;;;;;16.92;9.68;;;;;;;;;;4806858;29;20048;-88
2023/06/07 02:15:35;;;;;;;17.08;9.20;;;;;;;;;;4805765;29;20046;-88
2023/06/07 02:18:02;;;;;;;13.52;8.77;;;;;;;;;;4802488;29;20043;-87
2023/06/07 02:20:29;;;;;;;14.32;9.15;;;;;;;;;;4799462;29;20123;-87
2023/06/07 02:22:56;;;;;;;12.90;8.57;;;;;;;;;;4803395;29;20100;-88
2023/06/07 02:25:26;;;;;;;13.10;8.57;;;;;;;;;;4802366;29;20094;-88
2023/06/07 02:27:52;;;;;;;13.77;8.20;;;;;;;;;;4783767;29;20050;-88
2023/06/07 02:30:19;;;;;;;15.18;9.20;;;;;;;;;;4796769;29;20057;-88
2023/06/07 02:32:48;;;;;;;11.98;8.23;;;;;;;;;;4804409;29;20052;-87
2023/06/07 02:35:15;;;;;;;16.58;9.73;;;;;;;;;;4801226;29;20101;-88
2023/06/07 02:37:41;;;;;;;18.30;9.65;;;;;;;;;;4799914;29;20074;-88
2023/06/07 02:40:11;;;;;;;18.10;9.75;;;;;;;;;;4805923;29;20095;-87
2023/06/07 02:42:48;;;;;;;18.35;9.13;;;;;;;;;;4802492;29;20381;-88
2023/06/07 02:45:14;;;;;;;16.25;8.88;;;;;;;;;;4808192;29;20049;-88
2023/06/07 02:47:40;;;;;;;17.95;9.55;;;;;;;;;;4796511;29;20054;-87
2023/06/07 02:50:07;;;;;;;18.17;9.77;;;;;;;;;;4792287;29;20074;-88
2023/06/07 02:52:33;;;;;;;14.27;10.05;;;;;;;;;;4801931;29;20083;-88
2023/06/07 02:55:00;;;;;;;18.15;9.40;;;;;;;;;;4799193;29;20058;-87
2023/06/07 02:57:26;;;;;;;16.25;8.95;;;;;;;;;;4799505;29;20070;-88
2023/06/07 02:59:56;;;;;;;19.05;8.68;;;;;;;;;;4798737;29;20914;-88
2023/06/07 03:02:22;;;;;;;17.48;9.27;;;;;;;;;;4806341;29;20039;-88
2023/06/07 03:04:50;;;;;;;18.58;9.13;;;;;;;;;;4802809;29;20134;-88
2023/06/07 03:07:16;;;;;;;19.95;9.65;;;;;;;;;;4799990;29;20057;-87
2023/06/07 03:09:43;;;;;;;16.83;9.55;;;;;;;;;;4803521;29;20046;-88
2023/06/07 03:12:10;;;;;;;21.08;10.75;;;;;;;;;;4799657;29;20134;-87
2023/06/07 03:14:41;;;;;;;19.77;9.65;;;;;;;;;;4804803;29;20062;-87
2023/06/07 03:17:08;;;;;;;24.57;10.07;;;;;;;;;;4807221;29;20048;-88
2023/06/07 03:19:35;;;;;;;21.77;10.00;;;;;;;;;;4798218;29;20053;-88
2023/06/07 03:22:02;;;;;;;22.27;10.40;;;;;;;;;;4797996;29;20050;-88
2023/06/07 03:24:28;;;;;;;17.00;9.52;;;;;;;;;;4800192;29;20054;-89
2023/06/07 03:26:57;;;;;;;19.20;9.30;;;;;;;;;;4795176;29;20152;-87
2023/06/07 03:29:24;;;;;;;16.75;10.13;;;;;;;;;;4800298;29;20059;-88
2023/06/07 03:31:50;;;;;;;20.83;10.25;;;;;;;;;;4796981;29;20091;-88
2023/06/07 03:34:16;;;;;;;18.70;9.48;;;;;;;;;;4791696;29;20061;-87
2023/06/07 03:36:44;;;;;;;26.50;10.10;;;;;;;;;;4804425;29;20050;-88
2023/06/07 03:39:14;;;;;;;19.27;8.45;;;;;;;;;;4787411;29;20058;-87
2023/06/07 03:41:40;;;;;;;23.48;8.55;;;;;;;;;;4803074;29;20047;-88
2023/06/07 03:44:06;;;;;;;20.98;9.52;;;;;;;;;;4797281;29;20050;-87
2023/06/07 03:46:32;;;;;;;22.88;10.82;;;;;;;;;;4796165;29;20070;-87
2023/06/07 03:48:58;;;;;;;18.55;8.88;;;;;;;;;;4799145;29;20058;-88
2023/06/07 03:51:24;;;;;;;21.85;9.63;;;;;;;;;;4806109;29;20076;-87
2023/06/07 03:53:50;;;;;;;25.08;8.73;;;;;;;;;;4799862;29;20165;-87
2023/06/07 03:56:16;;;;;;;16.70;9.80;;;;;;;;;;4801226;29;20091;-87
2023/06/07 03:58:45;;;;;;;17.90;8.30;;;;;;;;;;4800028;29;20054;-87
2023/06/07 04:01:11;;;;;;;27.67;9.50;;;;;;;;;;4799516;29;20043;-88
2023/06/07 04:03:37;;;;;;;15.75;8.30;;;;;;;;;;4802479;29;20147;-87
2023/06/07 04:06:03;;;;;;;22.92;8.75;;;;;;;;;;4803349;29;20727;-87
2023/06/07 04:08:29;;;;;;;17.98;8.95;;;;;;;;;;4804377;29;20049;-87
2023/06/07 04:10:55;;;;;;;14.73;8.20;;;;;;;;;;4804537;29;20129;-87
2023/06/07 04:13:22;;;;;;;25.70;8.50;;;;;;;;;;4803554;29;20049;-87
2023/06/07 04:15:48;;;;;;;26.30;9.45;;;;;;;;;;4799734;29;20043;-87
2023/06/07 04:18:14;;;;;;;15.70;8.13;;;;;;;;;;4802892;29;20064;-88
2023/06/07 04:20:43;;;;;;;19.90;8.73;;;;;;;;;;4801956;29;20045;-88
2023/06/07 04:23:10;;;;;;;21.90;8.63;;;;;;;;;;4801646;29;20050;-88
2023/06/07 04:25:38;;;;;;;18.90;8.43;;;;;;;;;;4795787;29;20054;-88
2023/06/07 04:28:04;;;;;;;19.05;7.70;;;;;;;;;;4802380;29;20046;-88
2023/06/07 04:30:34;;;;;;;17.20;7.57;;;;;;;;;;4803214;29;20058;-89
2023/06/07 04:33:08;;;;;;;19.10;7.97;;;11.40;99.90;;;;;;4812618;29;20042;-87
2023/06/07 04:35:35;;;;;;;16.75;6.78;;;11.40;99.90;;;;;;4799040;29;20046;-86
2023/06/07 04:38:01;;;;;;;23.17;7.80;;;;;;;;;;4816276;29;20079;-87
2023/06/07 04:40:28;;;;;;;18.67;8.93;;;;;;;;;;4817372;29;20046;-88
2023/06/07 04:43:05;;;;;;;15.98;7.90;;;;;;;;;;4814274;29;20042;-87
2023/06/07 04:45:36;;;;;;;19.48;7.47;;;;;;;;;;4810156;29;20042;-87
2023/06/07 04:48:04;;;;;;;24.13;8.00;;;;;;;;;;4810097;29;20105;-87
2023/06/07 04:50:31;;;;;;;20.30;7.43;;;;;;;;;;4805163;29;20057;-87
2023/06/07 04:53:03;;;;;;;16.42;7.32;;;;;;;;;;4803255;29;20046;-87
2023/06/07 04:55:31;;;;;;;21.75;7.38;;;12.70;99.90;;;;;;4798979;29;20055;-87
2023/06/07 04:58:03;;;;;;;19.05;6.35;;;;;;;;;;4784273;29;20566;-87
2023/06/07 05:00:30;;;;;;;19.40;6.50;;;;;;;;;;4799655;29;20046;-88
2023/06/07 05:02:56;;;;;;;14.02;6.82;;;;;;;;;;4801089;29;20038;-88
2023/06/07 05:05:23;;;;;;;15.65;5.72;;;;;;;;;;4797842;29;20141;-88
2023/06/07 05:07:49;;;;;;;20.20;6.57;;;;;;;;;;4800662;29;20054;-88
2023/06/07 05:10:16;;;;;;;16.10;6.68;;;;;;;;;;4798654;29;20060;-87
2023/06/07 05:12:42;;;;;;;15.07;5.85;;;;;;;;;;4801762;29;20084;-87
2023/06/07 05:15:09;;;;;;;20.58;6.22;;;;;;;;;;4804131;29;20561;-88
2023/06/07 05:17:41;;;;;;;17.17;5.88;;;;;;;;;;4801467;29;20520;-87
2023/06/07 05:20:10;;;;;;;;;;;;;;;;;;4801469;29;20045;-88
2023/06/07 05:22:40;;;;;;;17.65;5.22;;;;;;;;;;4795955;29;19925;-87
2023/06/07 05:25:08;;;;;;;19.20;5.05;;;;;;;;;;4793210;29;20059;-88
2023/06/07 05:27:35;;;;;;;12.02;3.80;;;;;;;;;;4788007;29;20058;-87
2023/06/07 05:30:03;;;;;;;11.60;4.30;;;;;;;;;;4785461;29;20520;-87
2023/06/07 05:32:29;;;;;;;16.67;5.05;;;;;;;;;;4768307;29;20050;-88
2023/06/07 05:34:57;;;;;;;14.43;3.80;;;;;;;;;;4783230;29;20133;-90
2023/06/07 05:37:23;;;;;;;14.25;3.42;;;;;;;;;;4767477;29;20043;-87
2023/06/07 05:39:50;;;;;;;15.40;4.65;;;;;;;;;;4789083;29;20039;-91
2023/06/07 05:42:16;;;;;;;18.42;4.63;;;;;;;;;;4789160;29;20501;-89
2023/06/07 05:44:42;;;;;;;14.85;3.83;;;;;;;;;;4775352;29;20046;-89
2023/06/07 05:47:08;;;;;;;17.90;4.55;;;;;;;;;;4774558;29;20042;-88
2023/06/07 05:49:34;;;;;;;11.90;3.95;;;;;;;;;;4785086;29;20047;-89
2023/06/07 05:52:00;;;;;;;15.43;4.97;;;;;;;;;;4787017;29;20057;-88
2023/06/07 05:54:26;;;;;;;12.63;3.60;;;;;;;;;;4787130;29;20540;-89
2023/06/07 05:56:52;;;;;;;15.27;3.70;;;;;;;;;;4787269;29;20125;-89
2023/06/07 05:59:18;;;;;;;10.13;3.63;;;;;;;;;;4786352;29;20096;-88
2023/06/07 06:01:46;;;;;;;18.45;3.38;;;16.50;93.70;;;;;;4787037;29;20107;-86
2023/06/07 06:04:12;;;;;;;14.55;3.47;;;;;;;;;;4798353;29;20055;-87
2023/06/07 06:06:38;;;;;;;8.30;3.35;;;;;;;;;;4784900;29;20122;-89
2023/06/07 06:09:05;;;;;;;12.35;2.83;;;;;;;;;;4783460;29;20664;-88
2023/06/07 06:11:31;;;;;;;17.02;2.95;;;;;;;;;;4791713;29;20053;-89
2023/06/07 06:13:57;;;;;;;11.10;2.88;;;;;;;;;;4783604;29;20122;-87
2023/06/07 06:16:23;;;;;;;13.05;2.80;;;;;;;;;;4779195;29;20536;-88
2023/06/07 06:18:50;;;;;;;13.75;2.88;;;;;;;;;;4782657;29;20054;-86
2023/06/07 06:21:16;;;;;;;10.45;2.20;;;;;;;;;;4784417;29;20071;-88
2023/06/07 06:23:45;;;;;;;12.40;3.47;;;;;;;;;;4785007;29;20046;-86
2023/06/07 06:26:37;;;;;;;17.42;3.72;;;;;;;;;;4787096;29;20396;-87
2023/06/07 06:29:06;;;;;;;13.60;3.15;;;;;;;;;;4802812;29;20047;-89
2023/06/07 06:31:38;;;;;;;20.17;3.33;;;;;;;;;;4804830;29;20043;-87
2023/06/07 06:34:05;;;;;;;14.55;3.22;;;;;;;;;;4808448;29;20146;-88
2023/06/07 06:36:32;;;;;;;12.18;2.60;;;;;;;;;;4786244;29;20405;-88
2023/06/07 06:38:58;;;;;;;9.90;3.17;;;;;;;;;;4782721;29;20053;-89
2023/06/07 06:41:27;;;;;;;11.13;2.35;;;;;;;;;;4790891;29;20043;-87
2023/06/07 06:43:53;;;;;;;13.90;2.97;;;;;;;;;;4801229;29;20062;-88
2023/06/07 06:46:20;;;;;;;8.70;2.15;;;;;;;;;;4805344;29;20121;-88
2023/06/07 06:48:46;;;;;;;11.65;2.67;;;;;;;;;;4800301;29;20038;-86
2023/06/07 06:51:15;;;;;;;10.38;2.00;;;;;;;;;;4781100;29;20074;-87
2023/06/07 06:53:41;;;;;;;13.25;2.53;;;;;;;;;;4798175;29;20039;-88
2023/06/07 06:56:08;;;;;;;7.53;2.28;;;;;;;;;;4784081;29;20047;-85
2023/06/07 06:58:34;;;;;;;12.45;3.15;;;;;;;;;;4796375;29;20078;-89
2023/06/07 07:01:05;;;;;;;10.30;2.53;;;30.70;54.80;;;;;;4788063;29;20054;-90
2023/06/07 07:03:31;;;;;;;11.10;3.17;;;;;;;;;;4785384;29;20047;-86
2023/06/07 07:05:57;;;;;;;11.80;4.30;;;;;;;;;;4785576;29;20180;-87
2023/06/07 07:08:24;;;;;;;7.28;1.80;;;;;;;;;;4783102;29;20059;-89
2023/06/07 07:10:50;;;;;;;14.63;2.95;;;;;;;;;;4785684;29;20054;-89
2023/06/07 07:13:19;;;;;;;11.20;2.00;;;;;;;;;;4785688;29;20233;-89
2023/06/07 07:15:48;;;;;;;12.10;2.55;;;;;;;;;;4788058;29;20085;-90
2023/06/07 07:18:14;;;;;;;11.43;2.20;;;;;;;;;;4785972;29;20100;-88
2023/06/07 07:20:45;;;;;;;12.35;2.30;;;;;;;;;;4798279;29;20050;-88
2023/06/07 07:23:15;;;;;;;9.30;1.95;;;;;;;;;;4785277;29;20446;-89
2023/06/07 07:26:35;;;;;;;9.15;2.10;;;34.00;46.90;;;;;;4800523;29;20245;-88
2023/06/07 07:29:11;;;;;;;13.07;2.55;;;;;;;;;;4802742;29;20053;-86
2023/06/07 07:31:49;;;;;;;8.40;2.28;;;;;;;;;;4804136;29;20058;-86
2023/06/07 07:34:18;;;;;;;9.45;2.20;;;;;;;;;;4821005;29;20505;-89
2023/06/07 07:36:48;;;;;;;11.10;2.10;;;;;;;;;;4801378;29;20149;-87
2023/06/07 07:42:17;;;;;;;12.65;2.08;;;;;;;;;;4736322;30;20082;-87
2023/06/07 07:44:49;;;;;;;8.15;2.20;;;;;;;;;;4739288;30;20155;-88
2023/06/07 07:50:39;;;;;;;8.15;1.95;;;;;;;;;;4735481;29;20052;-89
2023/06/07 07:53:26;;;;;;;9.55;1.65;;;;;;;;;;4799949;29;20576;-86
2023/06/07 07:55:58;;;;;;;6.63;1.15;;;;;;;;;;4802562;29;20076;-87
2023/06/07 07:58:33;;;;;;;9.75;2.08;;;;;;;;;;4802093;29;20050;-86
2023/06/07 08:04:16;;;;;;;6.65;1.13;;;;;;;;;;4791518;29;20125;-87
2023/06/07 08:07:08;;;;;;;3.92;0.77;;;;;;;;;;4807183;29;20115;-86
2023/06/07 08:13:32;;;;;;;7.38;1.20;;;;;;;;;;4762620;29;20058;-84
2023/06/07 08:19:12;;;;;;;7.55;2.15;;;;;;;;;;4819404;29;20078;-87
2023/06/07 08:21:52;;;;;;;6.68;1.75;;;;;;;;;;4807091;29;20042;-86
2023/06/07 08:24:24;;;;;;;6.75;1.20;;;;;;;;;;4794039;29;20691;-87
2023/06/07 08:26:56;;;;;;;7.53;1.65;;;;;;;;;;4786125;29;20067;-87
2023/06/07 08:29:25;;;;;;;7.93;1.60;;;;;;;;;;4784698;29;20280;-86
2023/06/07 08:31:51;;;;;;;11.25;2.80;;;;;;;;;;4782822;29;20084;-87
2023/06/07 08:34:28;;;;;;;7.30;1.20;;;;;;;;;;4786657;29;20089;-87
2023/06/07 08:46:21;;;;;;;5.47;1.17;;;39.30;36.70;;;;;;4721807;30;19942;-90
2023/06/07 08:48:59;;;;;;;5.88;1.42;;;;;;;;;;4687404;30;20599;-90
2023/06/07 08:55:07;;;;;;;9.23;1.73;;;;;;;;;;4702993;30;20057;-89
2023/06/07 08:57:57;;;;;;;5.13;1.08;;;;;;;;;;4686224;30;20050;-90
2023/06/07 09:00:35;;;;;;;6.47;1.65;;;;;;;;;;4727038;29;20117;-89
2023/06/07 09:03:22;;;;;;;7.80;1.70;;;;;;;;;;4769138;29;20594;-88
2023/06/07 09:05:48;;;;;;;10.57;1.83;;;;;;;;;;4776807;29;20047;-90
2023/06/07 09:08:20;;;;;;;5.72;1.48;;;;;;;;;;4756044;29;20063;-88
2023/06/07 09:10:52;;;;;;;10.23;1.67;;;;;;;;;;4749941;30;20159;-87
2023/06/07 09:13:22;;;;;;;6.95;1.70;;;;;;;;;;4759544;30;20143;-84
2023/06/07 09:16:10;;;;;;;5.40;1.58;;;39.90;33.30;;;;;;4748396;30;20120;-87
2023/06/07 09:22:35;;;;;;;9.90;1.60;;;;;;;;;;4752883;30;20414;-86
2023/06/07 09:25:18;;;;;;;6.85;1.60;;;;;;;;;;4747764;29;20063;-88
2023/06/07 09:27:49;;;;;;;5.03;1.65;;;;;;;;;;4739490;29;21034;-90
2023/06/07 09:30:25;;;;;;;3.95;1.33;;;;;;;;;;4792387;29;20054;-86
2023/06/07 09:32:51;;;;;;;8.23;1.67;;;;;;;;;;4785912;29;20671;-86
2023/06/07 09:35:21;;;;;;;11.70;2.17;;;;;;;;;;4787666;29;20050;-85
2023/06/07 09:38:01;;;;;;;7.60;2.22;;;;;;;;;;4786960;29;20623;-88
2023/06/07 09:40:51;;;;;;;6.25;1.52;;;;;;;;;;4787214;29;20515;-89
2023/06/07 09:43:54;;;;;;;6.63;1.48;;;41.30;34.10;;;;;;4751653;30;20048;-89
2023/06/07 09:46:34;;;;;;;4.60;1.30;;;;;;;;;;4748335;30;20167;-90
2023/06/07 09:49:00;;;;;;;5.55;1.50;;;;;;;;;;4750155;30;20051;-89
2023/06/07 09:51:34;;;;;;;7.32;1.73;;;;;;;;;;4747218;30;20097;-87
2023/06/07 09:54:01;;;;;;;7.60;1.30;;;;;;;;;;4764411;30;20130;-87
2023/06/07 09:56:27;;;;;;;7.65;1.20;;;;;;;;;;4754942;30;20132;-88
2023/06/07 09:59:18;;;;;;;4.80;1.58;;;41.00;34.30;;;;;;4757264;30;20087;-88
2023/06/07 10:01:47;;;;;;;5.30;1.13;;;;;;;;;;4748098;30;20131;-88
2023/06/07 10:04:14;;;;;;;8.68;2.13;;;40.80;33.00;;;;;;4759304;29;20060;-86
2023/06/07 10:06:44;;;;;;;9.38;1.75;;;40.30;40.60;;;;;;4757920;30;20215;-88
2023/06/07 10:09:23;;;;;;;8.07;2.17;;;40.20;33.30;;;;;;4757270;30;20051;-89
2023/06/07 10:11:57;;;;;;;8.20;1.63;;;40.00;33.30;;;;;;4762857;30;20079;-91
2023/06/07 10:14:45;;;;;;;4.25;1.60;;;40.00;34.60;;;;;;4769035;29;20576;-92
2023/06/07 10:17:55;;;;;;;3.78;1.40;;;40.10;34.00;;;;;;4801269;29;20042;-90
2023/06/07 10:20:25;;;;;;;5.88;1.88;;;;;;;;;;4766785;29;20055;-88
2023/06/07 10:23:57;;;;;;;;;;;;;;;;;;;;;
2023/06/07 10:26:55;;;;;;;6.18;1.70;;;;;;;;;;4815766;29;20070;-91
2023/06/07 10:29:41;;;;;;;7.15;1.63;;;;;;;;;;4756979;30;20055;-92
2023/06/07 10:32:19;;;;;;;7.68;2.13;;;;;;;;;;4746737;30;20040;-89
2023/06/07 10:35:01;;;;;;;5.78;1.85;;;;;;;;;;4754454;30;20577;-90
2023/06/07 10:37:33;;;;;;;5.68;1.83;;;;;;;;;;4748436;30;20059;-88
2023/06/07 10:40:47;;;;;;;5.13;1.60;;;;;;;;;;4750117;30;20055;-89
2023/06/07 10:43:52;;;;;;;7.38;1.83;;;;;;;;;;4698687;30;20064;-92
2023/06/07 10:46:33;;;;;;;9.25;3.17;;;;;;;;;;4668815;30;20061;-91
2023/06/07 10:49:04;;;;;;;6.80;2.30;;;;;;;;;;4721079;30;20068;-90
2023/06/07 10:51:48;;;;;;;4.83;1.77;;;;;;;;;;4735034;30;20063;-86
2023/06/07 10:54:30;;;;;;;5.32;1.88;;;;;;;;;;4739294;30;20598;-87
2023/06/07 10:56:57;;;;;;;5.72;1.90;;;;;;;;;;4731857;30;20520;-89
2023/06/07 10:59:24;;;;;;;7.65;1.77;;;;;;;;;;4740347;30;20144;-86
2023/06/07 11:01:52;;;;;;;5.05;1.70;;;;;;;;;;4730163;30;20051;-84
2023/06/07 11:04:39;;;;;;;5.97;2.05;;;30.10;41.70;;;;;;4732361;30;20055;-87
2023/06/07 11:07:18;;;;;;;10.18;2.85;;;29.40;41.90;;;;;;4756459;30;20108;-86
2023/06/07 11:09:45;;;;;;;9.98;2.67;;;;;;;;;;4785191;29;20057;-87
2023/06/07 11:12:57;;;;;;;8.45;2.53;;;28.20;44.30;;;;;;4780082;29;20064;-86
2023/06/07 11:15:27;;;;;;;7.85;2.65;;;;;;;;;;4785397;29;20058;-90
2023/06/07 11:17:54;;;;;;;10.05;3.00;;;;;;;;;;4801320;29;20469;-86
2023/06/07 11:20:43;;;;;;;9.57;2.97;;;;;;;;;;4786162;29;20071;-88
2023/06/07 11:23:37;;;;;;;8.52;2.70;;;;;;;;;;4780479;29;20508;-88
2023/06/07 11:26:08;;;;;;;6.00;2.20;;;;;;;;;;4790141;29;20054;-87
2023/06/07 11:28:35;;;;;;;7.80;2.20;;;;;;;;;;4806170;29;20054;-85
2023/06/07 11:31:02;;;;;;;7.68;2.10;;;;;;;;;;4801668;29;20042;-86
2023/06/07 11:33:30;;;;;;;8.05;2.90;;;25.10;48.60;;;;;;4804850;29;20504;-88
2023/06/07 11:35:59;;;;;;;8.85;3.33;;;;;;;;;;4786783;29;20054;-84
2023/06/07 11:38:28;;;;;;;6.35;2.70;;;;;;;;;;4793725;29;20050;-88
2023/06/07 11:40:55;;;;;;;11.07;3.45;;;;;;;;;;4802048;29;20090;-87
2023/06/07 11:43:23;;;;;;;8.55;2.88;;;;;;;;;;4806796;29;20102;-86
2023/06/07 11:45:50;;;;;;;7.90;2.28;;;;;;;;;;4806747;29;20038;-86
2023/06/07 11:48:29;;;;;;;9.85;2.80;;;;;;;;;;4807012;29;20053;-87
2023/06/07 11:51:00;;;;;;;7.57;2.53;;;;;;;;;;4800718;29;20048;-88
2023/06/07 11:53:30;;;;;;;9.63;2.75;;;;;;;;;;4801556;29;20146;-86
2023/06/07 11:55:56;;;;;;;7.90;2.25;;;;;;;;;;4802093;29;20121;-85
2023/06/07 11:58:25;;;;;;;5.47;2.80;;;;;;;;;;4802483;29;20495;-90
2023/06/07 12:00:52;;;;;;;13.15;2.97;;;;;;;;;;4802846;29;20054;-87
2023/06/07 12:03:35;;;;;;;9.15;1.80;;;;;;;;;;4809320;29;20146;-87
2023/06/07 12:06:02;;;;;;;6.60;2.22;;;;;;;;;;4810251;29;20058;-86
2023/06/07 12:08:29;;;;;;;22.40;3.90;;;;;;;;;;4801053;29;20046;-86
2023/06/07 12:10:56;;;;;;;9.88;2.53;;;;;;;;;;4802282;29;20052;-87
2023/06/07 12:13:23;;;;;;;7.82;2.60;;;;;;;;;;4803590;29;20097;-87
2023/06/07 12:15:58;;;;;;;5.78;3.03;;;;;;;;;;4801019;29;20045;-89
2023/06/07 12:18:28;;;;;;;9.25;2.60;;;;;;;;;;4805638;29;20300;-86
2023/06/07 12:21:08;;;;;;;9.63;2.83;;;;;;;;;;4801984;29;20057;-88
2023/06/07 12:24:00;;;;;;;7.53;2.83;;;;;;;;;;4810919;29;20114;-90
2023/06/07 12:26:28;;;;;;;17.73;3.20;;;;;;;;;;4792488;29;20119;-87
2023/06/07 12:29:01;;;;;;;7.60;2.50;;;;;;;;;;4797537;29;20050;-89
2023/06/07 12:31:30;;;;;;;9.63;3.30;;;;;;;;;;4810927;29;20050;-88
2023/06/07 12:34:02;;;;;;;10.07;3.05;;;23.40;56.80;;;;;;4803261;29;20075;-86
2023/06/07 12:36:35;;;;;;;8.43;2.92;;;;;;;;;;4800152;29;20116;-88
2023/06/07 12:39:06;;;;;;;8.07;3.10;;;23.40;55.40;;;;;;4818234;29;20070;-88
2023/06/07 12:41:32;;;;;;;7.38;3.20;;;;;;;;;;4808141;29;20082;-85
2023/06/07 12:44:01;;;;;;;9.75;3.20;;;23.20;55.50;;;;;;4810809;29;20042;-88
2023/06/07 12:46:27;;;;;;;12.13;3.13;;;;;;;;;;4808233;29;20424;-83
2023/06/07 12:48:54;;;;;;;8.27;2.40;;;;;;;;;;4803104;29;20114;-83
2023/06/07 12:51:20;;;;;;;8.07;2.42;;;;;;;;;;4801534;29;20053;-84
2023/06/07 12:53:46;;;;;;;6.90;2.85;;;;;;;;;;4791524;29;20122;-86
2023/06/07 12:56:12;;;;;;;7.25;2.78;;;;;;;;;;4801147;29;20119;-83
2023/06/07 12:58:38;;;;;;;11.10;3.08;;;;;;;;;;4809543;29;20046;-86
2023/06/07 13:01:05;;;;;;;8.13;2.47;;;;;;;;;;4803399;29;20564;-87
2023/06/07 13:03:31;;;;;;;7.90;3.50;;;;;;;;;;4805696;29;20046;-87
2023/06/07 13:05:58;;;;;;;10.73;2.60;;;;;;;;;;4804878;29;20050;-85
2023/06/07 13:08:36;;;;;;;8.77;2.90;;;;;;;;;;4810053;29;20051;-91
2023/06/07 13:11:05;;;;;;;7.43;2.42;;;;;;;;;;4806848;29;20057;-86
2023/06/07 13:13:34;;;;;;;11.57;3.90;;;;;;;;;;4804343;29;20082;-87
2023/06/07 13:16:01;;;;;;;13.52;3.00;;;;;;;;;;4803854;29;20050;-84
2023/06/07 13:18:28;;;;;;;9.45;3.28;;;;;;;;;;4803406;29;20126;-86
2023/06/07 13:20:55;;;;;;;9.80;2.45;;;;;;;;;;4804583;29;20050;-86
2023/06/07 13:23:22;;;;;;;10.55;2.80;;;;;;;;;;4800028;29;20512;-84
2023/06/07 13:25:48;;;;;;;14.27;3.42;;;;;;;;;;4828560;29;20834;-86
2023/06/07 13:28:14;;;;;;;7.55;2.70;;;;;;;;;;4808406;29;20060;-89
2023/06/07 13:30:40;;;;;;;12.18;3.35;;;;;;;;;;4807760;29;20075;-88
2023/06/07 13:33:19;;;;;;;11.70;3.15;;;;;;;;;;4817980;29;20050;-86
2023/06/07 13:35:50;;;;;;;11.52;2.83;;;;;;;;;;4804420;29;20050;-88
2023/06/07 13:38:17;;;;;;;10.57;2.72;;;;;;;;;;4805027;29;20046;-84
2023/06/07 13:40:46;;;;;;;8.30;2.90;;;;;;;;;;4814053;29;20073;-86
2023/06/07 13:43:25;;;;;;;;;;;;;;;;;;;;;
2023/06/07 13:46:15;;;;;;;10.52;2.90;;;;;;;;;;4801439;29;20054;-85
2023/06/07 13:48:44;;;;;;;9.45;2.95;;;;;;;;;;4812789;29;20432;-87
2023/06/07 13:51:11;;;;;;;7.93;2.95;;;;;;;;;;4808137;29;20519;-88
2023/06/07 13:53:41;;;;;;;7.88;2.63;;;;;;;;;;4800790;29;20133;-87
2023/06/07 13:56:11;;;;;;;12.48;2.95;;;;;;;;;;4806136;29;20046;-86
2023/06/07 13:58:45;;;;;;;11.02;2.80;;;;;;;;;;4815269;29;20050;-88
2023/06/07 14:01:14;;;;;;;8.93;2.65;;;;;;;;;;4817583;29;20046;-87
2023/06/07 14:03:55;;;;;;;9.23;2.90;;;;;;;;;;4811222;29;20046;-86
2023/06/07 14:06:22;;;;;;;11.43;3.75;;;;;;;;;;4806988;29;20099;-87
2023/06/07 14:08:52;;;;;;;9.27;2.45;;;;;;;;;;4816532;29;20082;-87
2023/06/07 14:11:23;;;;;;;7.80;2.55;;;;;;;;;;4809747;29;20470;-87
2023/06/07 14:13:52;;;;;;;6.85;3.40;;;;;;;;;;4806443;29;20512;-85
2023/06/07 14:16:27;;;;;;;7.45;2.67;;;;;;;;;;4813785;29;20053;-89
2023/06/07 14:18:58;;;;;;;6.72;2.58;;;;;;;;;;4806459;29;20042;-86
2023/06/07 14:21:39;;;;;;;7.45;3.10;;;;;;;;;;4809454;29;20054;-87
2023/06/07 14:24:13;;;;;;;9.27;2.58;;;;;;;;;;4805132;29;20086;-87
2023/06/07 14:26:40;;;;;;;9.65;3.45;;;;;;;;;;4792737;29;20098;-87
2023/06/07 14:29:06;;;;;;;8.40;2.85;;;;;;;;;;4785387;29;20058;-84
2023/06/07 14:31:54;;;;;;;7.80;3.00;;;;;;;;;;4785568;29;20086;-85
2023/06/07 14:34:31;;;;;;;6.95;2.97;;;;;;;;;;4784698;29;20730;-86
2023/06/07 14:36:57;;;;;;;10.70;2.78;;;;;;;;;;4796169;29;20046;-86
2023/06/07 14:39:23;;;;;;;9.95;2.60;;;;;;;;;;4804863;29;20050;-86
2023/06/07 14:41:50;;;;;;;6.70;2.67;;;;;;;;;;4784254;29;20186;-87
2023/06/07 14:44:16;;;;;;;8.38;3.30;;;;;;;;;;4784073;29;20069;-84
2023/06/07 14:49:59;;;;;;;8.73;3.13;;;21.10;60.50;;;;;;4787283;29;20534;-86
2023/06/07 14:52:25;;;;;;;10.10;2.72;;;;;;;;;;4756954;29;20095;-86
2023/06/07 14:55:16;;;;;;;10.02;2.75;;;;;;;;;;4787806;29;20099;-86
2023/06/07 14:58:04;;;;;;;8.10;2.83;;;;;;;;;;4795812;29;20081;-86
2023/06/07 15:00:54;;;;;;;8.18;2.63;;;;;;;;;;4778331;29;20097;-90
2023/06/07 15:03:32;;;;;;;10.73;2.75;;;;;;;;;;4780581;29;20043;-87
2023/06/07 15:06:01;;;;;;;6.45;2.72;;;;;;;;;;4795718;29;20109;-85
2023/06/07 15:11:49;;;;;;;9.32;2.92;;;;;;;;;;4735539;29;20077;-84
2023/06/07 15:14:29;;;;;;;;;;;;;;;;;;;;;
2023/06/07 15:17:58;;;;;;;10.48;3.28;;;;;;;;;;4793181;29;20089;-86
2023/06/07 15:20:32;;;;;;;12.05;2.92;;;;;;;;;;4798200;29;20506;-85
2023/06/07 15:22:58;;;;;;;16.92;4.00;;;;;;;;;;4782100;29;20050;-86
2023/06/07 15:25:30;;;;;;;12.40;3.33;;;;;;;;;;4787227;29;20394;-88
2023/06/07 15:28:30;;;;;;;10.00;2.85;;;;;;;;;;4791387;29;20058;-87
2023/06/07 15:31:15;;;;;;;9.65;2.83;;;;;;;;;;4798049;29;20086;-90